createdAt,value
2017-07-15T00:04:56.878Z,100
2017-07-15T00:15:11.666Z,100
2017-07-15T00:25:27.357Z,100
2017-07-15T00:35:41.992Z,100
2017-07-15T00:45:56.908Z,100
2017-07-15T00:56:11.382Z,100
2017-07-15T01:06:25.991Z,100
2017-07-15T01:16:39.667Z,100
2017-07-15T01:26:54.290Z,100
2017-07-15T01:37:08.311Z,100
2017-07-15T01:47:22.974Z,100
2017-07-15T01:57:37.164Z,100
2017-07-15T02:07:52.466Z,100
2017-07-15T02:18:06.466Z,100
2017-07-15T02:28:20.700Z,100
2017-07-15T02:38:35.006Z,100
2017-07-15T02:48:50.487Z,100
2017-07-15T02:59:05.535Z,100
2017-07-15T03:09:19.345Z,100
2017-07-15T03:19:33.721Z,100
2017-07-15T03:29:47.853Z,100
2017-07-15T03:40:03.619Z,100
2017-07-15T03:50:18.479Z,100
2017-07-15T04:00:32.492Z,100
2017-07-15T04:10:47.077Z,100
2017-07-15T04:21:00.846Z,100
2017-07-15T04:31:16.527Z,100
2017-07-15T04:41:31.246Z,100
2017-07-15T04:51:45.454Z,100
2017-07-15T05:01:59.932Z,100
2017-07-15T05:12:14.949Z,100
2017-07-15T05:22:30.501Z,100
2017-07-15T05:32:45.709Z,100
2017-07-15T05:43:00.764Z,100
2017-07-15T05:53:15.579Z,100
2017-07-15T06:03:30.375Z,100
2017-07-15T06:13:44.352Z,100
2017-07-15T06:23:58.146Z,100
2017-07-15T06:34:12.348Z,100
2017-07-15T06:44:26.401Z,100
2017-07-15T06:54:41.134Z,100
2017-07-15T07:04:56.034Z,100
2017-07-15T07:15:11.603Z,100
2017-07-15T07:25:26.031Z,100
2017-07-15T07:35:40.779Z,100
2017-07-15T07:45:56.271Z,100
2017-07-15T07:56:11.600Z,100
2017-07-15T08:06:26.605Z,100
2017-07-15T08:16:40.949Z,100
2017-07-15T08:26:56.682Z,100
2017-07-15T08:37:11.542Z,100
2017-07-15T08:47:26.357Z,100
2017-07-15T08:57:40.798Z,100
2017-07-15T09:07:55.673Z,99.2
2017-07-15T09:18:09.676Z,96.3
2017-07-15T09:28:25.123Z,92.8
2017-07-15T09:38:40.207Z,91.7
2017-07-15T09:48:54.194Z,94.5
2017-07-15T09:59:08.305Z,93.4
2017-07-15T10:09:23.347Z,92.3
2017-07-15T10:19:38.919Z,90.2
2017-07-15T10:29:52.915Z,92.2
2017-07-15T10:40:07.451Z,92.2
2017-07-15T10:50:21.749Z,88.1
2017-07-15T11:00:36.234Z,87.7
2017-07-15T11:10:50.304Z,88.5
2017-07-15T11:21:04.317Z,88.9
2017-07-15T11:31:18.398Z,87.9
2017-07-15T11:41:32.826Z,86.8
2017-07-15T11:51:48.411Z,86
2017-07-15T12:02:04.072Z,85.7
2017-07-15T12:12:19.409Z,84.2
2017-07-15T12:22:34.887Z,82.9
2017-07-15T12:32:50.048Z,81
2017-07-15T12:43:04.372Z,79.4
2017-07-15T12:53:19.825Z,80.5
2017-07-15T13:03:34.517Z,81.3
2017-07-15T13:13:50.341Z,82
2017-07-15T13:24:06.065Z,77.6
2017-07-15T13:34:21.197Z,76.5
2017-07-15T13:44:36.385Z,76.4
2017-07-15T13:54:51.988Z,76.2
2017-07-15T14:05:06.834Z,75.6
2017-07-15T14:15:22.721Z,73.5
2017-07-15T14:25:37.834Z,74.9
2017-07-15T14:35:53.119Z,75.2
2017-07-15T14:46:07.771Z,75.4
2017-07-15T14:56:22.397Z,73.8
2017-07-15T15:06:38.253Z,73.8
2017-07-15T15:16:52.940Z,74.7
2017-07-15T15:27:07.869Z,75.2
2017-07-15T15:37:23.030Z,75.4
2017-07-15T15:47:38.506Z,74.2
2017-07-15T15:57:53.012Z,73
2017-07-15T16:08:08.240Z,70.1
2017-07-15T16:18:22.146Z,70.1
2017-07-15T16:28:36.204Z,69.1
2017-07-15T16:38:50.316Z,67.3
2017-07-15T16:49:05.210Z,67.2
2017-07-15T16:59:19.618Z,66
2017-07-15T17:09:33.531Z,64.7
2017-07-15T17:19:47.693Z,65.7
2017-07-15T17:30:02.161Z,68.2
2017-07-15T17:40:16.727Z,71.1
2017-07-15T17:50:31.594Z,73.8
2017-07-15T18:00:46.449Z,75.4
2017-07-15T18:11:00.321Z,79.2
2017-07-15T18:21:15.463Z,81.4
2017-07-15T18:31:30.422Z,83.7
2017-07-15T18:41:45.975Z,84.9
2017-07-15T18:52:00.128Z,86.8
2017-07-15T19:02:14.472Z,86.8
2017-07-15T19:12:29.289Z,88
2017-07-15T19:22:43.878Z,88.2
2017-07-15T19:32:58.110Z,88.6
2017-07-15T19:43:12.205Z,89.3
2017-07-15T19:53:26.051Z,89.3
2017-07-15T20:03:40.556Z,89.5
2017-07-15T20:13:55.118Z,88.9
2017-07-15T20:24:09.595Z,88.7
2017-07-15T20:34:23.428Z,89.5
2017-07-15T20:44:38.860Z,90.7
2017-07-15T20:54:54.044Z,92.3
2017-07-15T21:05:08.584Z,92.6
2017-07-15T21:15:22.696Z,93.2
2017-07-15T21:25:37.870Z,93
2017-07-15T21:35:52.493Z,93.6
2017-07-15T21:46:07.188Z,94
2017-07-15T21:56:21.719Z,94.1
2017-07-15T22:06:36.141Z,93.8
2017-07-15T22:16:50.682Z,94.2
2017-07-15T22:27:05.474Z,94.6
2017-07-15T22:37:19.288Z,94.8
2017-07-15T22:47:33.665Z,94.8
2017-07-15T22:57:49.207Z,95.5
2017-07-15T23:08:03.391Z,95
2017-07-15T23:18:18.040Z,94.9
2017-07-15T23:28:32.714Z,95.6
2017-07-15T23:38:47.753Z,96.2
2017-07-15T23:49:02.735Z,97.3
2017-07-15T23:59:16.681Z,98.3
